sensor_id;sensor_type;location;lat;lon;timestamp;P1;durP1;ratioP1;P2;durP2;ratioP2
63038;SDS011;49125;48.812;9.206;2022-08-19T00:01:15;15.95;;;14.40;;
63038;SDS011;49125;48.812;9.206;2022-08-19T00:03:41;16.20;;;14.70;;
63038;SDS011;49125;48.812;9.206;2022-08-19T00:06:06;17.15;;;15.52;;
63038;SDS011;49125;48.812;9.206;2022-08-19T00:08:32;16.80;;;15.30;;
63038;SDS011;49125;48.812;9.206;2022-08-19T00:10:57;16.58;;;15.18;;
63038;SDS011;49125;48.812;9.206;2022-08-19T00:13:23;15.65;;;14.25;;
63038;SDS011;49125;48.812;9.206;2022-08-19T00:15:48;16.95;;;15.43;;
63038;SDS011;49125;48.812;9.206;2022-08-19T00:18:14;16.05;;;14.65;;
63038;SDS011;49125;48.812;9.206;2022-08-19T00:20:39;17.55;;;16.00;;
63038;SDS011;49125;48.812;9.206;2022-08-19T00:23:05;16.38;;;14.90;;
63038;SDS011;49125;48.812;9.206;2022-08-19T00:25:31;17.02;;;15.50;;
63038;SDS011;49125;48.812;9.206;2022-08-19T00:27:58;16.85;;;15.27;;
63038;SDS011;49125;48.812;9.206;2022-08-19T00:30:24;16.42;;;14.98;;
63038;SDS011;49125;48.812;9.206;2022-08-19T00:32:51;16.98;;;15.23;;
63038;SDS011;49125;48.812;9.206;2022-08-19T00:35:19;16.65;;;14.95;;
63038;SDS011;49125;48.812;9.206;2022-08-19T00:37:46;16.30;;;14.80;;
63038;SDS011;49125;48.812;9.206;2022-08-19T00:40:13;16.83;;;15.23;;
63038;SDS011;49125;48.812;9.206;2022-08-19T00:42:40;17.00;;;15.40;;
63038;SDS011;49125;48.812;9.206;2022-08-19T00:45:10;16.67;;;15.18;;
63038;SDS011;49125;48.812;9.206;2022-08-19T00:47:39;17.00;;;15.20;;
63038;SDS011;49125;48.812;9.206;2022-08-19T00:50:05;17.00;;;15.50;;
63038;SDS011;49125;48.812;9.206;2022-08-19T00:52:33;17.20;;;15.60;;
63038;SDS011;49125;48.812;9.206;2022-08-19T00:55:03;16.83;;;14.88;;
63038;SDS011;49125;48.812;9.206;2022-08-19T00:57:34;17.42;;;15.38;;
63038;SDS011;49125;48.812;9.206;2022-08-19T01:00:04;17.27;;;15.77;;
63038;SDS011;49125;48.812;9.206;2022-08-19T01:02:42;17.45;;;15.75;;
63038;SDS011;49125;48.812;9.206;2022-08-19T01:05:09;17.23;;;15.45;;
63038;SDS011;49125;48.812;9.206;2022-08-19T01:07:37;16.08;;;14.68;;
63038;SDS011;49125;48.812;9.206;2022-08-19T01:10:05;17.30;;;15.70;;
63038;SDS011;49125;48.812;9.206;2022-08-19T01:12:33;16.48;;;14.95;;
63038;SDS011;49125;48.812;9.206;2022-08-19T01:14:59;17.45;;;15.90;;
63038;SDS011;49125;48.812;9.206;2022-08-19T01:17:25;17.67;;;15.98;;
63038;SDS011;49125;48.812;9.206;2022-08-19T01:19:50;17.02;;;15.52;;
63038;SDS011;49125;48.812;9.206;2022-08-19T01:22:20;18.17;;;16.50;;
63038;SDS011;49125;48.812;9.206;2022-08-19T01:24:49;18.42;;;16.42;;
63038;SDS011;49125;48.812;9.206;2022-08-19T01:27:15;16.95;;;15.27;;
63038;SDS011;49125;48.812;9.206;2022-08-19T01:29:41;17.00;;;15.32;;
63038;SDS011;49125;48.812;9.206;2022-08-19T01:32:12;18.20;;;16.45;;
63038;SDS011;49125;48.812;9.206;2022-08-19T01:34:39;19.17;;;16.23;;
63038;SDS011;49125;48.812;9.206;2022-08-19T01:37:06;17.65;;;16.05;;
63038;SDS011;49125;48.812;9.206;2022-08-19T01:39:35;18.63;;;16.77;;
63038;SDS011;49125;48.812;9.206;2022-08-19T01:42:02;18.30;;;16.63;;
63038;SDS011;49125;48.812;9.206;2022-08-19T01:44:28;19.10;;;17.25;;
63038;SDS011;49125;48.812;9.206;2022-08-19T01:46:54;17.85;;;16.17;;
63038;SDS011;49125;48.812;9.206;2022-08-19T01:49:20;18.20;;;16.52;;
63038;SDS011;49125;48.812;9.206;2022-08-19T01:51:48;18.92;;;17.25;;
63038;SDS011;49125;48.812;9.206;2022-08-19T01:54:15;20.00;;;17.85;;
63038;SDS011;49125;48.812;9.206;2022-08-19T01:56:41;18.25;;;16.65;;
63038;SDS011;49125;48.812;9.206;2022-08-19T01:59:12;19.17;;;17.48;;
63038;SDS011;49125;48.812;9.206;2022-08-19T02:01:40;19.83;;;17.92;;
63038;SDS011;49125;48.812;9.206;2022-08-19T02:04:05;19.98;;;18.08;;
63038;SDS011;49125;48.812;9.206;2022-08-19T02:06:31;20.67;;;18.67;;
63038;SDS011;49125;48.812;9.206;2022-08-19T02:08:58;19.85;;;17.98;;
63038;SDS011;49125;48.812;9.206;2022-08-19T02:11:27;19.98;;;18.10;;
63038;SDS011;49125;48.812;9.206;2022-08-19T02:13:56;20.88;;;18.88;;
63038;SDS011;49125;48.812;9.206;2022-08-19T02:16:22;20.85;;;18.98;;
63038;SDS011;49125;48.812;9.206;2022-08-19T02:18:48;19.55;;;17.80;;
63038;SDS011;49125;48.812;9.206;2022-08-19T02:21:17;21.45;;;19.55;;
63038;SDS011;49125;48.812;9.206;2022-08-19T02:23:45;20.55;;;18.65;;
63038;SDS011;49125;48.812;9.206;2022-08-19T02:26:11;21.10;;;19.08;;
63038;SDS011;49125;48.812;9.206;2022-08-19T02:28:38;22.30;;;20.25;;
63038;SDS011;49125;48.812;9.206;2022-08-19T02:31:08;20.98;;;19.13;;
63038;SDS011;49125;48.812;9.206;2022-08-19T02:33:38;23.38;;;20.92;;
63038;SDS011;49125;48.812;9.206;2022-08-19T02:36:04;23.17;;;20.85;;
63038;SDS011;49125;48.812;9.206;2022-08-19T02:38:30;22.27;;;20.13;;
63038;SDS011;49125;48.812;9.206;2022-08-19T02:40:58;23.15;;;20.95;;
63038;SDS011;49125;48.812;9.206;2022-08-19T02:43:26;23.23;;;21.13;;
63038;SDS011;49125;48.812;9.206;2022-08-19T02:45:53;23.08;;;20.88;;
63038;SDS011;49125;48.812;9.206;2022-08-19T02:48:19;25.00;;;22.55;;
63038;SDS011;49125;48.812;9.206;2022-08-19T02:50:47;23.20;;;21.05;;
63038;SDS011;49125;48.812;9.206;2022-08-19T02:53:17;24.25;;;21.75;;
63038;SDS011;49125;48.812;9.206;2022-08-19T02:55:44;23.50;;;21.27;;
63038;SDS011;49125;48.812;9.206;2022-08-19T02:58:11;25.77;;;23.13;;
63038;SDS011;49125;48.812;9.206;2022-08-19T03:00:40;25.27;;;22.38;;
63038;SDS011;49125;48.812;9.206;2022-08-19T03:03:15;24.52;;;22.23;;
63038;SDS011;49125;48.812;9.206;2022-08-19T03:05:41;25.17;;;22.73;;
63038;SDS011;49125;48.812;9.206;2022-08-19T03:08:08;25.10;;;22.75;;
63038;SDS011;49125;48.812;9.206;2022-08-19T03:10:41;25.05;;;22.40;;
63038;SDS011;49125;48.812;9.206;2022-08-19T03:13:12;26.15;;;23.55;;
63038;SDS011;49125;48.812;9.206;2022-08-19T03:15:39;26.40;;;23.67;;
63038;SDS011;49125;48.812;9.206;2022-08-19T03:18:06;25.30;;;22.80;;
63038;SDS011;49125;48.812;9.206;2022-08-19T03:20:32;25.45;;;23.05;;
63038;SDS011;49125;48.812;9.206;2022-08-19T03:22:57;26.20;;;23.58;;
63038;SDS011;49125;48.812;9.206;2022-08-19T03:25:23;26.50;;;23.80;;
63038;SDS011;49125;48.812;9.206;2022-08-19T03:27:49;26.38;;;23.58;;
63038;SDS011;49125;48.812;9.206;2022-08-19T03:30:14;24.80;;;22.52;;
63038;SDS011;49125;48.812;9.206;2022-08-19T03:32:40;26.25;;;23.60;;
63038;SDS011;49125;48.812;9.206;2022-08-19T03:35:06;26.25;;;23.75;;
63038;SDS011;49125;48.812;9.206;2022-08-19T03:37:34;27.55;;;24.70;;
63038;SDS011;49125;48.812;9.206;2022-08-19T03:39:59;27.10;;;24.35;;
63038;SDS011;49125;48.812;9.206;2022-08-19T03:42:28;27.73;;;25.23;;
63038;SDS011;49125;48.812;9.206;2022-08-19T03:44:54;26.75;;;24.20;;
63038;SDS011;49125;48.812;9.206;2022-08-19T03:47:19;27.25;;;24.50;;
63038;SDS011;49125;48.812;9.206;2022-08-19T03:49:45;26.85;;;24.17;;
63038;SDS011;49125;48.812;9.206;2022-08-19T03:52:11;26.63;;;24.13;;
63038;SDS011;49125;48.812;9.206;2022-08-19T03:54:36;26.83;;;24.25;;
63038;SDS011;49125;48.812;9.206;2022-08-19T03:57:03;27.40;;;24.70;;
63038;SDS011;49125;48.812;9.206;2022-08-19T03:59:30;26.10;;;23.88;;
63038;SDS011;49125;48.812;9.206;2022-08-19T04:02:01;26.73;;;24.13;;
63038;SDS011;49125;48.812;9.206;2022-08-19T04:04:33;26.17;;;23.48;;
63038;SDS011;49125;48.812;9.206;2022-08-19T04:06:58;27.08;;;24.45;;
63038;SDS011;49125;48.812;9.206;2022-08-19T04:09:24;27.73;;;25.20;;
63038;SDS011;49125;48.812;9.206;2022-08-19T04:11:52;29.05;;;26.42;;
63038;SDS011;49125;48.812;9.206;2022-08-19T04:14:20;29.13;;;26.15;;
63038;SDS011;49125;48.812;9.206;2022-08-19T04:16:49;28.20;;;25.63;;
63038;SDS011;49125;48.812;9.206;2022-08-19T04:19:16;27.38;;;24.80;;
63038;SDS011;49125;48.812;9.206;2022-08-19T04:21:43;28.17;;;25.48;;
63038;SDS011;49125;48.812;9.206;2022-08-19T04:24:10;27.20;;;24.45;;
63038;SDS011;49125;48.812;9.206;2022-08-19T04:26:36;27.52;;;24.73;;
63038;SDS011;49125;48.812;9.206;2022-08-19T04:29:35;28.77;;;25.85;;
63038;SDS011;49125;48.812;9.206;2022-08-19T04:31:55;29.35;;;26.55;;
63038;SDS011;49125;48.812;9.206;2022-08-19T04:34:22;29.33;;;26.45;;
63038;SDS011;49125;48.812;9.206;2022-08-19T04:36:51;28.50;;;25.58;;
63038;SDS011;49125;48.812;9.206;2022-08-19T04:39:22;30.52;;;27.42;;
63038;SDS011;49125;48.812;9.206;2022-08-19T04:42:10;29.27;;;26.15;;
63038;SDS011;49125;48.812;9.206;2022-08-19T04:44:54;28.50;;;25.80;;
63038;SDS011;49125;48.812;9.206;2022-08-19T04:47:20;29.35;;;26.63;;
63038;SDS011;49125;48.812;9.206;2022-08-19T04:49:46;28.38;;;25.70;;
63038;SDS011;49125;48.812;9.206;2022-08-19T04:52:11;28.95;;;26.33;;
63038;SDS011;49125;48.812;9.206;2022-08-19T04:54:37;28.75;;;26.08;;
63038;SDS011;49125;48.812;9.206;2022-08-19T04:57:03;28.38;;;25.88;;
63038;SDS011;49125;48.812;9.206;2022-08-19T04:59:30;28.80;;;26.02;;
63038;SDS011;49125;48.812;9.206;2022-08-19T05:01:57;28.17;;;25.73;;
63038;SDS011;49125;48.812;9.206;2022-08-19T05:04:22;28.48;;;25.88;;
63038;SDS011;49125;48.812;9.206;2022-08-19T05:06:48;29.00;;;26.25;;
63038;SDS011;49125;48.812;9.206;2022-08-19T05:09:14;28.27;;;25.45;;
63038;SDS011;49125;48.812;9.206;2022-08-19T05:11:41;29.80;;;26.92;;
63038;SDS011;49125;48.812;9.206;2022-08-19T05:14:07;29.08;;;26.48;;
63038;SDS011;49125;48.812;9.206;2022-08-19T05:16:34;29.58;;;26.55;;
63038;SDS011;49125;48.812;9.206;2022-08-19T05:19:00;28.65;;;25.95;;
63038;SDS011;49125;48.812;9.206;2022-08-19T05:21:44;27.92;;;25.33;;
63038;SDS011;49125;48.812;9.206;2022-08-19T05:24:28;29.92;;;27.08;;
63038;SDS011;49125;48.812;9.206;2022-08-19T05:26:54;28.42;;;25.77;;
63038;SDS011;49125;48.812;9.206;2022-08-19T05:29:25;28.23;;;25.67;;
63038;SDS011;49125;48.812;9.206;2022-08-19T05:31:52;28.90;;;26.15;;
63038;SDS011;49125;48.812;9.206;2022-08-19T05:34:19;29.00;;;26.30;;
63038;SDS011;49125;48.812;9.206;2022-08-19T05:36:52;27.58;;;25.17;;
63038;SDS011;49125;48.812;9.206;2022-08-19T05:39:22;28.77;;;25.88;;
63038;SDS011;49125;48.812;9.206;2022-08-19T05:41:56;29.13;;;26.38;;
63038;SDS011;49125;48.812;9.206;2022-08-19T05:44:33;28.83;;;26.23;;
63038;SDS011;49125;48.812;9.206;2022-08-19T05:47:02;28.17;;;25.50;;
63038;SDS011;49125;48.812;9.206;2022-08-19T05:49:30;28.27;;;25.65;;
63038;SDS011;49125;48.812;9.206;2022-08-19T05:51:57;28.27;;;25.73;;
63038;SDS011;49125;48.812;9.206;2022-08-19T05:54:24;28.70;;;25.80;;
63038;SDS011;49125;48.812;9.206;2022-08-19T05:56:50;29.05;;;26.42;;
63038;SDS011;49125;48.812;9.206;2022-08-19T05:59:17;27.67;;;25.08;;
63038;SDS011;49125;48.812;9.206;2022-08-19T06:01:45;29.65;;;26.75;;
63038;SDS011;49125;48.812;9.206;2022-08-19T06:04:15;27.95;;;25.38;;
63038;SDS011;49125;48.812;9.206;2022-08-19T06:06:43;29.23;;;26.23;;
63038;SDS011;49125;48.812;9.206;2022-08-19T06:09:08;28.58;;;25.80;;
63038;SDS011;49125;48.812;9.206;2022-08-19T06:11:45;27.52;;;25.00;;
63038;SDS011;49125;48.812;9.206;2022-08-19T06:14:20;28.13;;;25.52;;
63038;SDS011;49125;48.812;9.206;2022-08-19T06:16:48;29.92;;;27.05;;
63038;SDS011;49125;48.812;9.206;2022-08-19T06:19:16;27.33;;;24.83;;
63038;SDS011;49125;48.812;9.206;2022-08-19T06:21:44;27.73;;;25.00;;
63038;SDS011;49125;48.812;9.206;2022-08-19T06:24:13;28.75;;;26.10;;
63038;SDS011;49125;48.812;9.206;2022-08-19T06:26:42;29.27;;;26.30;;
63038;SDS011;49125;48.812;9.206;2022-08-19T06:29:10;28.08;;;25.48;;
63038;SDS011;49125;48.812;9.206;2022-08-19T06:31:39;28.15;;;25.65;;
63038;SDS011;49125;48.812;9.206;2022-08-19T06:34:06;30.05;;;27.15;;
63038;SDS011;49125;48.812;9.206;2022-08-19T06:36:33;29.30;;;26.33;;
63038;SDS011;49125;48.812;9.206;2022-08-19T06:39:03;30.52;;;27.65;;
63038;SDS011;49125;48.812;9.206;2022-08-19T06:41:30;29.67;;;27.00;;
63038;SDS011;49125;48.812;9.206;2022-08-19T06:43:59;31.52;;;28.55;;
63038;SDS011;49125;48.812;9.206;2022-08-19T06:46:24;31.70;;;28.60;;
63038;SDS011;49125;48.812;9.206;2022-08-19T06:48:51;31.17;;;28.15;;
63038;SDS011;49125;48.812;9.206;2022-08-19T06:51:18;31.65;;;28.67;;
63038;SDS011;49125;48.812;9.206;2022-08-19T06:53:46;32.47;;;29.02;;
63038;SDS011;49125;48.812;9.206;2022-08-19T06:56:16;30.40;;;27.65;;
63038;SDS011;49125;48.812;9.206;2022-08-19T06:58:49;30.63;;;27.92;;
63038;SDS011;49125;48.812;9.206;2022-08-19T07:01:17;31.63;;;28.77;;
63038;SDS011;49125;48.812;9.206;2022-08-19T07:03:44;31.08;;;28.10;;
63038;SDS011;49125;48.812;9.206;2022-08-19T07:06:13;32.00;;;28.65;;
63038;SDS011;49125;48.812;9.206;2022-08-19T07:08:42;30.48;;;27.45;;
63038;SDS011;49125;48.812;9.206;2022-08-19T07:11:09;28.30;;;25.75;;
63038;SDS011;49125;48.812;9.206;2022-08-19T07:13:37;30.27;;;27.05;;
63038;SDS011;49125;48.812;9.206;2022-08-19T07:16:08;29.90;;;27.20;;
63038;SDS011;49125;48.812;9.206;2022-08-19T07:18:35;28.77;;;25.98;;
63038;SDS011;49125;48.812;9.206;2022-08-19T07:21:12;29.35;;;26.65;;
63038;SDS011;49125;48.812;9.206;2022-08-19T07:23:39;28.25;;;25.65;;
63038;SDS011;49125;48.812;9.206;2022-08-19T07:26:11;28.75;;;26.05;;
63038;SDS011;49125;48.812;9.206;2022-08-19T07:28:41;27.95;;;25.13;;
63038;SDS011;49125;48.812;9.206;2022-08-19T07:31:09;27.88;;;25.25;;
63038;SDS011;49125;48.812;9.206;2022-08-19T07:33:37;28.15;;;25.50;;
63038;SDS011;49125;48.812;9.206;2022-08-19T07:36:07;27.42;;;24.88;;
63038;SDS011;49125;48.812;9.206;2022-08-19T07:38:36;26.70;;;24.13;;
63038;SDS011;49125;48.812;9.206;2022-08-19T07:41:04;28.17;;;24.50;;
63038;SDS011;49125;48.812;9.206;2022-08-19T07:43:30;27.17;;;24.55;;
63038;SDS011;49125;48.812;9.206;2022-08-19T07:45:55;25.83;;;23.25;;
63038;SDS011;49125;48.812;9.206;2022-08-19T07:48:24;27.00;;;23.98;;
63038;SDS011;49125;48.812;9.206;2022-08-19T07:50:55;27.63;;;24.73;;
63038;SDS011;49125;48.812;9.206;2022-08-19T07:53:23;27.67;;;24.88;;
63038;SDS011;49125;48.812;9.206;2022-08-19T07:55:49;24.83;;;22.52;;
63038;SDS011;49125;48.812;9.206;2022-08-19T07:58:17;27.00;;;24.35;;
63038;SDS011;49125;48.812;9.206;2022-08-19T08:00:45;26.30;;;23.75;;
63038;SDS011;49125;48.812;9.206;2022-08-19T08:03:12;28.02;;;25.23;;
63038;SDS011;49125;48.812;9.206;2022-08-19T08:05:38;28.55;;;25.85;;
63038;SDS011;49125;48.812;9.206;2022-08-19T08:08:22;28.70;;;25.85;;
63038;SDS011;49125;48.812;9.206;2022-08-19T08:10:48;27.75;;;25.15;;
63038;SDS011;49125;48.812;9.206;2022-08-19T08:13:14;29.55;;;26.33;;
63038;SDS011;49125;48.812;9.206;2022-08-19T08:15:41;30.35;;;27.38;;
63038;SDS011;49125;48.812;9.206;2022-08-19T08:18:06;30.27;;;27.20;;
63038;SDS011;49125;48.812;9.206;2022-08-19T08:20:32;32.78;;;29.48;;
63038;SDS011;49125;48.812;9.206;2022-08-19T08:22:58;30.17;;;27.00;;
63038;SDS011;49125;48.812;9.206;2022-08-19T08:25:42;29.80;;;26.60;;
63038;SDS011;49125;48.812;9.206;2022-08-19T08:28:08;29.80;;;26.90;;
63038;SDS011;49125;48.812;9.206;2022-08-19T08:30:34;29.98;;;27.38;;
63038;SDS011;49125;48.812;9.206;2022-08-19T08:33:01;28.85;;;26.00;;
63038;SDS011;49125;48.812;9.206;2022-08-19T08:35:27;30.45;;;27.52;;
63038;SDS011;49125;48.812;9.206;2022-08-19T08:37:53;29.73;;;27.02;;
63038;SDS011;49125;48.812;9.206;2022-08-19T08:40:26;29.63;;;26.77;;
63038;SDS011;49125;48.812;9.206;2022-08-19T08:42:56;31.33;;;28.15;;
63038;SDS011;49125;48.812;9.206;2022-08-19T08:45:30;27.77;;;25.15;;
63038;SDS011;49125;48.812;9.206;2022-08-19T08:47:58;28.75;;;26.17;;
63038;SDS011;49125;48.812;9.206;2022-08-19T08:50:30;29.10;;;26.50;;
63038;SDS011;49125;48.812;9.206;2022-08-19T08:53:03;28.65;;;26.10;;
63038;SDS011;49125;48.812;9.206;2022-08-19T08:55:30;26.73;;;24.15;;
63038;SDS011;49125;48.812;9.206;2022-08-19T09:00:32;28.33;;;25.55;;
63038;SDS011;49125;48.812;9.206;2022-08-19T09:03:02;26.73;;;24.13;;
63038;SDS011;49125;48.812;9.206;2022-08-19T09:05:38;25.52;;;23.13;;
63038;SDS011;49125;48.812;9.206;2022-08-19T09:11:09;26.40;;;24.10;;
63038;SDS011;49125;48.812;9.206;2022-08-19T09:16:18;25.65;;;23.50;;
63038;SDS011;49125;48.812;9.206;2022-08-19T09:18:47;23.80;;;21.50;;
63038;SDS011;49125;48.812;9.206;2022-08-19T09:21:22;24.67;;;22.58;;
63038;SDS011;49125;48.812;9.206;2022-08-19T09:23:50;24.15;;;21.95;;
63038;SDS011;49125;48.812;9.206;2022-08-19T09:26:17;25.08;;;22.88;;
63038;SDS011;49125;48.812;9.206;2022-08-19T09:28:45;24.02;;;22.02;;
63038;SDS011;49125;48.812;9.206;2022-08-19T09:31:16;23.40;;;21.40;;
63038;SDS011;49125;48.812;9.206;2022-08-19T09:33:45;23.70;;;21.20;;
63038;SDS011;49125;48.812;9.206;2022-08-19T09:36:12;23.13;;;20.95;;
63038;SDS011;49125;48.812;9.206;2022-08-19T09:38:39;22.42;;;20.08;;
63038;SDS011;49125;48.812;9.206;2022-08-19T09:41:07;23.73;;;21.45;;
63038;SDS011;49125;48.812;9.206;2022-08-19T09:43:36;22.65;;;20.45;;
63038;SDS011;49125;48.812;9.206;2022-08-19T09:46:03;22.13;;;20.02;;
63038;SDS011;49125;48.812;9.206;2022-08-19T09:48:33;21.23;;;19.23;;
63038;SDS011;49125;48.812;9.206;2022-08-19T09:51:02;21.65;;;19.63;;
63038;SDS011;49125;48.812;9.206;2022-08-19T09:53:33;20.52;;;18.60;;
63038;SDS011;49125;48.812;9.206;2022-08-19T09:55:59;20.15;;;17.95;;
63038;SDS011;49125;48.812;9.206;2022-08-19T09:58:25;20.02;;;18.20;;
63038;SDS011;49125;48.812;9.206;2022-08-19T10:00:53;19.33;;;17.55;;
63038;SDS011;49125;48.812;9.206;2022-08-19T10:03:20;21.23;;;19.00;;
63038;SDS011;49125;48.812;9.206;2022-08-19T10:05:45;19.15;;;17.38;;
63038;SDS011;49125;48.812;9.206;2022-08-19T10:08:22;18.45;;;16.77;;
63038;SDS011;49125;48.812;9.206;2022-08-19T10:10:51;19.25;;;17.45;;
63038;SDS011;49125;48.812;9.206;2022-08-19T10:13:18;18.05;;;16.45;;
63038;SDS011;49125;48.812;9.206;2022-08-19T10:15:47;19.42;;;17.25;;
63038;SDS011;49125;48.812;9.206;2022-08-19T10:18:15;19.33;;;17.15;;
63038;SDS011;49125;48.812;9.206;2022-08-19T10:20:42;19.42;;;17.77;;
63038;SDS011;49125;48.812;9.206;2022-08-19T10:23:10;17.05;;;15.35;;
63038;SDS011;49125;48.812;9.206;2022-08-19T10:25:39;17.52;;;16.02;;
63038;SDS011;49125;48.812;9.206;2022-08-19T10:28:04;18.25;;;16.55;;
63038;SDS011;49125;48.812;9.206;2022-08-19T10:30:35;17.42;;;15.63;;
63038;SDS011;49125;48.812;9.206;2022-08-19T10:33:01;17.52;;;15.85;;
63038;SDS011;49125;48.812;9.206;2022-08-19T10:35:27;16.83;;;15.30;;
63038;SDS011;49125;48.812;9.206;2022-08-19T10:37:54;16.73;;;15.27;;
63038;SDS011;49125;48.812;9.206;2022-08-19T10:40:23;16.85;;;15.15;;
63038;SDS011;49125;48.812;9.206;2022-08-19T10:42:50;16.27;;;14.60;;
63038;SDS011;49125;48.812;9.206;2022-08-19T10:45:15;19.20;;;16.02;;
63038;SDS011;49125;48.812;9.206;2022-08-19T10:47:41;16.15;;;14.85;;
63038;SDS011;49125;48.812;9.206;2022-08-19T10:50:07;14.88;;;13.00;;
63038;SDS011;49125;48.812;9.206;2022-08-19T10:52:51;14.88;;;13.52;;
63038;SDS011;49125;48.812;9.206;2022-08-19T10:55:18;14.77;;;13.27;;
63038;SDS011;49125;48.812;9.206;2022-08-19T10:58:09;13.70;;;12.50;;
63038;SDS011;49125;48.812;9.206;2022-08-19T11:00:36;12.90;;;11.70;;
63038;SDS011;49125;48.812;9.206;2022-08-19T11:03:02;12.98;;;11.52;;
63038;SDS011;49125;48.812;9.206;2022-08-19T11:05:27;12.32;;;11.15;;
63038;SDS011;49125;48.812;9.206;2022-08-19T11:07:53;12.38;;;11.02;;
63038;SDS011;49125;48.812;9.206;2022-08-19T11:10:18;11.82;;;10.48;;
63038;SDS011;49125;48.812;9.206;2022-08-19T11:12:44;12.25;;;10.90;;
63038;SDS011;49125;48.812;9.206;2022-08-19T11:15:11;11.75;;;10.55;;
63038;SDS011;49125;48.812;9.206;2022-08-19T11:17:37;11.07;;;10.00;;
63038;SDS011;49125;48.812;9.206;2022-08-19T11:20:08;13.68;;;9.18;;
63038;SDS011;49125;48.812;9.206;2022-08-19T11:22:35;13.57;;;9.65;;
63038;SDS011;49125;48.812;9.206;2022-08-19T11:25:01;10.68;;;9.60;;
63038;SDS011;49125;48.812;9.206;2022-08-19T11:27:27;10.80;;;9.55;;
63038;SDS011;49125;48.812;9.206;2022-08-19T11:29:53;10.45;;;9.50;;
63038;SDS011;49125;48.812;9.206;2022-08-19T11:32:19;12.00;;;10.27;;
63038;SDS011;49125;48.812;9.206;2022-08-19T11:34:45;12.07;;;10.88;;
63038;SDS011;49125;48.812;9.206;2022-08-19T11:37:10;10.50;;;9.40;;
63038;SDS011;49125;48.812;9.206;2022-08-19T11:39:36;12.65;;;9.57;;
63038;SDS011;49125;48.812;9.206;2022-08-19T11:42:03;10.02;;;8.95;;
63038;SDS011;49125;48.812;9.206;2022-08-19T11:44:52;9.52;;;8.73;;
63038;SDS011;49125;48.812;9.206;2022-08-19T11:47:19;10.30;;;9.43;;
63038;SDS011;49125;48.812;9.206;2022-08-19T11:49:45;9.95;;;9.05;;
63038;SDS011;49125;48.812;9.206;2022-08-19T11:52:11;9.63;;;8.73;;
63038;SDS011;49125;48.812;9.206;2022-08-19T11:54:37;9.98;;;9.05;;
63038;SDS011;49125;48.812;9.206;2022-08-19T11:57:03;9.60;;;8.70;;
63038;SDS011;49125;48.812;9.206;2022-08-19T11:59:29;11.10;;;8.82;;
63038;SDS011;49125;48.812;9.206;2022-08-19T12:01:54;10.27;;;9.20;;
63038;SDS011;49125;48.812;9.206;2022-08-19T12:04:20;9.90;;;9.00;;
63038;SDS011;49125;48.812;9.206;2022-08-19T12:06:46;10.32;;;9.30;;
63038;SDS011;49125;48.812;9.206;2022-08-19T12:09:12;11.10;;;9.32;;
63038;SDS011;49125;48.812;9.206;2022-08-19T12:11:39;10.15;;;9.13;;
63038;SDS011;49125;48.812;9.206;2022-08-19T12:14:05;10.30;;;8.85;;
63038;SDS011;49125;48.812;9.206;2022-08-19T12:16:33;10.20;;;9.25;;
63038;SDS011;49125;48.812;9.206;2022-08-19T12:18:59;10.77;;;9.40;;
63038;SDS011;49125;48.812;9.206;2022-08-19T12:21:28;19.70;;;17.80;;
63038;SDS011;49125;48.812;9.206;2022-08-19T12:23:56;27.95;;;25.25;;
63038;SDS011;49125;48.812;9.206;2022-08-19T12:26:24;32.63;;;29.45;;
63038;SDS011;49125;48.812;9.206;2022-08-19T12:28:51;31.08;;;28.23;;
63038;SDS011;49125;48.812;9.206;2022-08-19T12:31:17;30.77;;;27.88;;
63038;SDS011;49125;48.812;9.206;2022-08-19T12:33:44;29.52;;;26.73;;
63038;SDS011;49125;48.812;9.206;2022-08-19T12:36:11;30.83;;;28.00;;
63038;SDS011;49125;48.812;9.206;2022-08-19T12:38:38;28.67;;;25.85;;
63038;SDS011;49125;48.812;9.206;2022-08-19T12:41:04;29.23;;;26.38;;
63038;SDS011;49125;48.812;9.206;2022-08-19T12:43:31;28.70;;;25.95;;
63038;SDS011;49125;48.812;9.206;2022-08-19T12:45:57;28.77;;;25.73;;
63038;SDS011;49125;48.812;9.206;2022-08-19T12:48:23;29.13;;;26.15;;
63038;SDS011;49125;48.812;9.206;2022-08-19T12:50:49;29.45;;;26.70;;
63038;SDS011;49125;48.812;9.206;2022-08-19T12:53:15;29.05;;;26.45;;
63038;SDS011;49125;48.812;9.206;2022-08-19T12:55:41;29.40;;;26.48;;
63038;SDS011;49125;48.812;9.206;2022-08-19T12:58:08;30.08;;;27.27;;
63038;SDS011;49125;48.812;9.206;2022-08-19T13:00:33;29.70;;;26.83;;
63038;SDS011;49125;48.812;9.206;2022-08-19T13:02:59;28.85;;;26.25;;
63038;SDS011;49125;48.812;9.206;2022-08-19T13:05:27;26.40;;;24.05;;
63038;SDS011;49125;48.812;9.206;2022-08-19T13:14:38;29.55;;;26.85;;
63038;SDS011;49125;48.812;9.206;2022-08-19T13:17:05;28.70;;;26.10;;
63038;SDS011;49125;48.812;9.206;2022-08-19T13:19:31;30.98;;;27.98;;
63038;SDS011;49125;48.812;9.206;2022-08-19T13:21:57;29.77;;;27.10;;
63038;SDS011;49125;48.812;9.206;2022-08-19T13:24:23;30.75;;;28.10;;
63038;SDS011;49125;48.812;9.206;2022-08-19T13:26:49;33.78;;;30.60;;
63038;SDS011;49125;48.812;9.206;2022-08-19T13:29:15;33.33;;;29.80;;
63038;SDS011;49125;48.812;9.206;2022-08-19T13:31:59;34.33;;;31.20;;
63038;SDS011;49125;48.812;9.206;2022-08-19T13:34:43;35.38;;;31.95;;
63038;SDS011;49125;48.812;9.206;2022-08-19T13:37:11;34.97;;;31.42;;
63038;SDS011;49125;48.812;9.206;2022-08-19T13:39:37;35.33;;;31.80;;
63038;SDS011;49125;48.812;9.206;2022-08-19T13:42:06;34.67;;;31.25;;
63038;SDS011;49125;48.812;9.206;2022-08-19T13:44:33;36.63;;;32.97;;
63038;SDS011;49125;48.812;9.206;2022-08-19T13:47:05;36.40;;;33.08;;
63038;SDS011;49125;48.812;9.206;2022-08-19T13:49:33;37.80;;;34.10;;
63038;SDS011;49125;48.812;9.206;2022-08-19T13:52:02;36.88;;;33.58;;
63038;SDS011;49125;48.812;9.206;2022-08-19T13:54:29;37.55;;;33.83;;
63038;SDS011;49125;48.812;9.206;2022-08-19T13:56:54;36.22;;;32.70;;
63038;SDS011;49125;48.812;9.206;2022-08-19T13:59:20;39.70;;;35.88;;
63038;SDS011;49125;48.812;9.206;2022-08-19T14:01:46;39.65;;;35.47;;
63038;SDS011;49125;48.812;9.206;2022-08-19T14:04:14;37.85;;;34.20;;
63038;SDS011;49125;48.812;9.206;2022-08-19T14:06:40;41.00;;;36.97;;
63038;SDS011;49125;48.812;9.206;2022-08-19T14:09:05;40.65;;;36.63;;
63038;SDS011;49125;48.812;9.206;2022-08-19T14:11:32;41.33;;;36.95;;
63038;SDS011;49125;48.812;9.206;2022-08-19T14:13:58;40.40;;;36.35;;
63038;SDS011;49125;48.812;9.206;2022-08-19T14:16:23;41.45;;;37.53;;
63038;SDS011;49125;48.812;9.206;2022-08-19T14:18:49;38.53;;;34.85;;
63038;SDS011;49125;48.812;9.206;2022-08-19T14:21:16;39.83;;;36.10;;
63038;SDS011;49125;48.812;9.206;2022-08-19T14:23:45;38.92;;;35.10;;
63038;SDS011;49125;48.812;9.206;2022-08-19T14:26:13;39.25;;;35.15;;
63038;SDS011;49125;48.812;9.206;2022-08-19T14:28:41;40.20;;;36.10;;
63038;SDS011;49125;48.812;9.206;2022-08-19T14:31:08;36.95;;;33.55;;
63038;SDS011;49125;48.812;9.206;2022-08-19T14:33:34;38.40;;;35.00;;
63038;SDS011;49125;48.812;9.206;2022-08-19T14:36:00;39.97;;;36.10;;
63038;SDS011;49125;48.812;9.206;2022-08-19T14:38:26;37.35;;;33.83;;
63038;SDS011;49125;48.812;9.206;2022-08-19T14:40:52;37.20;;;33.80;;
63038;SDS011;49125;48.812;9.206;2022-08-19T14:43:18;35.22;;;31.98;;